sensor_id;sensor_type;location;lat;lon;timestamp;P1;durP1;ratioP1;P2;durP2;ratioP2
12958;SDS011;6544;51.666;6.634;2023-01-08T00:02:02;2.50;;;1.92;;
12958;SDS011;6544;51.666;6.634;2023-01-08T00:04:28;4.53;;;2.10;;
12958;SDS011;6544;51.666;6.634;2023-01-08T00:06:55;2.33;;;1.80;;
12958;SDS011;6544;51.666;6.634;2023-01-08T00:09:22;3.58;;;2.20;;
12958;SDS011;6544;51.666;6.634;2023-01-08T00:11:49;3.33;;;1.83;;
12958;SDS011;6544;51.666;6.634;2023-01-08T00:14:16;2.13;;;1.92;;
12958;SDS011;6544;51.666;6.634;2023-01-08T00:16:43;2.22;;;1.70;;
12958;SDS011;6544;51.666;6.634;2023-01-08T00:19:11;3.13;;;2.00;;
12958;SDS011;6544;51.666;6.634;2023-01-08T00:21:38;2.67;;;2.00;;
12958;SDS011;6544;51.666;6.634;2023-01-08T00:24:05;3.58;;;2.17;;
12958;SDS011;6544;51.666;6.634;2023-01-08T00:26:32;1.90;;;1.80;;
12958;SDS011;6544;51.666;6.634;2023-01-08T00:28:59;2.35;;;2.00;;
12958;SDS011;6544;51.666;6.634;2023-01-08T00:31:26;2.28;;;1.70;;
12958;SDS011;6544;51.666;6.634;2023-01-08T00:33:53;2.85;;;2.08;;
12958;SDS011;6544;51.666;6.634;2023-01-08T00:36:21;3.13;;;1.95;;
12958;SDS011;6544;51.666;6.634;2023-01-08T00:38:48;2.55;;;1.80;;
12958;SDS011;6544;51.666;6.634;2023-01-08T00:41:15;3.53;;;2.10;;
12958;SDS011;6544;51.666;6.634;2023-01-08T00:43:42;2.85;;;2.10;;
12958;SDS011;6544;51.666;6.634;2023-01-08T00:46:09;2.60;;;2.17;;
12958;SDS011;6544;51.666;6.634;2023-01-08T00:48:36;3.50;;;2.58;;
12958;SDS011;6544;51.666;6.634;2023-01-08T00:51:03;2.38;;;2.17;;
12958;SDS011;6544;51.666;6.634;2023-01-08T00:53:33;2.78;;;1.98;;
12958;SDS011;6544;51.666;6.634;2023-01-08T00:56:02;2.78;;;2.30;;
12958;SDS011;6544;51.666;6.634;2023-01-08T00:58:30;2.25;;;2.00;;
12958;SDS011;6544;51.666;6.634;2023-01-08T01:00:57;2.97;;;2.00;;
12958;SDS011;6544;51.666;6.634;2023-01-08T01:03:24;3.28;;;1.85;;
12958;SDS011;6544;51.666;6.634;2023-01-08T01:05:58;3.38;;;2.00;;
12958;SDS011;6544;51.666;6.634;2023-01-08T01:08:25;3.42;;;2.35;;
12958;SDS011;6544;51.666;6.634;2023-01-08T01:10:54;2.75;;;2.05;;
12958;SDS011;6544;51.666;6.634;2023-01-08T01:13:20;3.08;;;2.22;;
12958;SDS011;6544;51.666;6.634;2023-01-08T01:15:55;3.85;;;1.92;;
12958;SDS011;6544;51.666;6.634;2023-01-08T01:18:22;2.63;;;2.10;;
12958;SDS011;6544;51.666;6.634;2023-01-08T01:20:49;3.53;;;2.38;;
12958;SDS011;6544;51.666;6.634;2023-01-08T01:23:16;3.63;;;2.67;;
12958;SDS011;6544;51.666;6.634;2023-01-08T01:25:43;4.10;;;2.38;;
12958;SDS011;6544;51.666;6.634;2023-01-08T01:28:11;4.90;;;2.38;;
12958;SDS011;6544;51.666;6.634;2023-01-08T01:30:38;3.45;;;2.35;;
12958;SDS011;6544;51.666;6.634;2023-01-08T01:33:05;4.03;;;2.40;;
12958;SDS011;6544;51.666;6.634;2023-01-08T01:35:32;2.55;;;1.95;;
12958;SDS011;6544;51.666;6.634;2023-01-08T01:37:59;3.55;;;2.35;;
12958;SDS011;6544;51.666;6.634;2023-01-08T01:40:25;3.45;;;2.20;;
12958;SDS011;6544;51.666;6.634;2023-01-08T01:42:52;4.55;;;2.42;;
12958;SDS011;6544;51.666;6.634;2023-01-08T01:45:22;3.55;;;2.40;;
12958;SDS011;6544;51.666;6.634;2023-01-08T01:47:53;4.75;;;2.75;;
12958;SDS011;6544;51.666;6.634;2023-01-08T01:50:25;4.65;;;2.40;;
12958;SDS011;6544;51.666;6.634;2023-01-08T01:52:56;2.47;;;2.22;;
12958;SDS011;6544;51.666;6.634;2023-01-08T01:55:26;3.20;;;2.22;;
12958;SDS011;6544;51.666;6.634;2023-01-08T01:57:56;4.43;;;2.50;;
12958;SDS011;6544;51.666;6.634;2023-01-08T02:00:29;3.08;;;2.50;;
12958;SDS011;6544;51.666;6.634;2023-01-08T02:02:58;4.40;;;2.40;;
12958;SDS011;6544;51.666;6.634;2023-01-08T02:05:27;3.17;;;2.50;;
12958;SDS011;6544;51.666;6.634;2023-01-08T02:08:00;5.78;;;2.55;;
12958;SDS011;6544;51.666;6.634;2023-01-08T02:10:34;5.22;;;2.60;;
12958;SDS011;6544;51.666;6.634;2023-01-08T02:13:09;3.53;;;2.40;;
12958;SDS011;6544;51.666;6.634;2023-01-08T02:15:45;3.70;;;2.20;;
12958;SDS011;6544;51.666;6.634;2023-01-08T02:18:18;3.90;;;2.25;;
12958;SDS011;6544;51.666;6.634;2023-01-08T02:20:51;5.57;;;2.53;;
12958;SDS011;6544;51.666;6.634;2023-01-08T02:23:24;5.15;;;2.80;;
12958;SDS011;6544;51.666;6.634;2023-01-08T02:26:08;4.28;;;2.50;;
12958;SDS011;6544;51.666;6.634;2023-01-08T02:28:39;4.93;;;2.58;;
12958;SDS011;6544;51.666;6.634;2023-01-08T02:31:09;3.03;;;2.58;;
12958;SDS011;6544;51.666;6.634;2023-01-08T02:33:38;3.40;;;2.40;;
12958;SDS011;6544;51.666;6.634;2023-01-08T02:36:21;4.50;;;2.70;;
12958;SDS011;6544;51.666;6.634;2023-01-08T02:39:01;3.30;;;2.45;;
12958;SDS011;6544;51.666;6.634;2023-01-08T02:41:49;3.67;;;2.40;;
12958;SDS011;6544;51.666;6.634;2023-01-08T02:44:21;4.13;;;2.40;;
12958;SDS011;6544;51.666;6.634;2023-01-08T02:46:54;4.72;;;2.40;;
12958;SDS011;6544;51.666;6.634;2023-01-08T02:49:23;3.70;;;2.30;;
12958;SDS011;6544;51.666;6.634;2023-01-08T02:51:55;4.57;;;2.35;;
12958;SDS011;6544;51.666;6.634;2023-01-08T02:54:25;3.10;;;2.20;;
12958;SDS011;6544;51.666;6.634;2023-01-08T02:56:57;3.05;;;2.50;;
12958;SDS011;6544;51.666;6.634;2023-01-08T02:59:28;5.50;;;2.60;;
12958;SDS011;6544;51.666;6.634;2023-01-08T03:01:57;4.13;;;2.22;;
12958;SDS011;6544;51.666;6.634;2023-01-08T03:04:25;3.85;;;2.38;;
12958;SDS011;6544;51.666;6.634;2023-01-08T03:06:56;3.63;;;2.30;;
12958;SDS011;6544;51.666;6.634;2023-01-08T03:09:23;4.30;;;2.65;;
12958;SDS011;6544;51.666;6.634;2023-01-08T03:11:50;3.75;;;2.05;;
12958;SDS011;6544;51.666;6.634;2023-01-08T03:14:24;5.28;;;2.20;;
12958;SDS011;6544;51.666;6.634;2023-01-08T03:16:54;4.60;;;2.60;;
12958;SDS011;6544;51.666;6.634;2023-01-08T03:19:27;3.75;;;2.38;;
12958;SDS011;6544;51.666;6.634;2023-01-08T03:21:57;4.38;;;2.50;;
12958;SDS011;6544;51.666;6.634;2023-01-08T03:24:27;3.42;;;2.10;;
12958;SDS011;6544;51.666;6.634;2023-01-08T03:26:59;3.55;;;2.33;;
12958;SDS011;6544;51.666;6.634;2023-01-08T03:29:31;2.95;;;2.17;;
12958;SDS011;6544;51.666;6.634;2023-01-08T03:32:01;4.05;;;2.40;;
12958;SDS011;6544;51.666;6.634;2023-01-08T03:34:30;4.32;;;2.22;;
12958;SDS011;6544;51.666;6.634;2023-01-08T03:37:01;6.85;;;2.50;;
12958;SDS011;6544;51.666;6.634;2023-01-08T03:39:32;3.72;;;2.30;;
12958;SDS011;6544;51.666;6.634;2023-01-08T03:42:06;3.90;;;2.40;;
12958;SDS011;6544;51.666;6.634;2023-01-08T03:44:38;4.68;;;2.30;;
12958;SDS011;6544;51.666;6.634;2023-01-08T03:47:05;3.28;;;2.13;;
12958;SDS011;6544;51.666;6.634;2023-01-08T03:49:34;4.28;;;2.30;;
12958;SDS011;6544;51.666;6.634;2023-01-08T03:52:01;4.55;;;2.40;;
12958;SDS011;6544;51.666;6.634;2023-01-08T03:54:29;5.45;;;2.53;;
12958;SDS011;6544;51.666;6.634;2023-01-08T03:57:01;4.72;;;2.30;;
12958;SDS011;6544;51.666;6.634;2023-01-08T03:59:28;3.78;;;2.55;;
12958;SDS011;6544;51.666;6.634;2023-01-08T04:01:56;7.13;;;2.30;;
12958;SDS011;6544;51.666;6.634;2023-01-08T04:04:23;4.88;;;2.47;;
12958;SDS011;6544;51.666;6.634;2023-01-08T04:06:50;3.28;;;2.30;;
12958;SDS011;6544;51.666;6.634;2023-01-08T04:09:17;3.88;;;2.58;;
12958;SDS011;6544;51.666;6.634;2023-01-08T04:11:44;4.45;;;2.20;;
12958;SDS011;6544;51.666;6.634;2023-01-08T04:14:11;4.25;;;2.15;;
12958;SDS011;6544;51.666;6.634;2023-01-08T04:16:38;6.45;;;2.67;;
12958;SDS011;6544;51.666;6.634;2023-01-08T04:19:07;3.05;;;2.00;;
12958;SDS011;6544;51.666;6.634;2023-01-08T04:21:38;4.22;;;2.03;;
12958;SDS011;6544;51.666;6.634;2023-01-08T04:24:06;2.75;;;1.85;;
12958;SDS011;6544;51.666;6.634;2023-01-08T04:26:33;3.35;;;1.50;;
12958;SDS011;6544;51.666;6.634;2023-01-08T04:29:00;3.10;;;1.58;;
12958;SDS011;6544;51.666;6.634;2023-01-08T04:31:28;2.63;;;1.60;;
12958;SDS011;6544;51.666;6.634;2023-01-08T04:33:55;5.93;;;1.60;;
12958;SDS011;6544;51.666;6.634;2023-01-08T04:36:23;3.60;;;1.60;;
12958;SDS011;6544;51.666;6.634;2023-01-08T04:38:50;5.05;;;1.77;;
12958;SDS011;6544;51.666;6.634;2023-01-08T04:41:17;2.58;;;1.35;;
12958;SDS011;6544;51.666;6.634;2023-01-08T04:43:44;3.13;;;1.38;;
12958;SDS011;6544;51.666;6.634;2023-01-08T04:46:11;4.13;;;1.50;;
12958;SDS011;6544;51.666;6.634;2023-01-08T04:48:38;5.88;;;1.20;;
12958;SDS011;6544;51.666;6.634;2023-01-08T04:51:05;4.75;;;1.40;;
12958;SDS011;6544;51.666;6.634;2023-01-08T04:53:34;2.88;;;1.40;;
12958;SDS011;6544;51.666;6.634;2023-01-08T04:56:03;3.05;;;1.50;;
12958;SDS011;6544;51.666;6.634;2023-01-08T04:58:32;3.13;;;1.50;;
12958;SDS011;6544;51.666;6.634;2023-01-08T05:00:59;3.53;;;1.40;;
12958;SDS011;6544;51.666;6.634;2023-01-08T05:03:26;3.53;;;1.50;;
12958;SDS011;6544;51.666;6.634;2023-01-08T05:05:53;2.78;;;1.40;;
12958;SDS011;6544;51.666;6.634;2023-01-08T05:08:20;4.00;;;1.60;;
12958;SDS011;6544;51.666;6.634;2023-01-08T05:10:48;4.13;;;1.80;;
12958;SDS011;6544;51.666;6.634;2023-01-08T05:13:15;3.55;;;1.80;;
12958;SDS011;6544;51.666;6.634;2023-01-08T05:15:42;3.05;;;1.85;;
12958;SDS011;6544;51.666;6.634;2023-01-08T05:18:09;4.18;;;1.73;;
12958;SDS011;6544;51.666;6.634;2023-01-08T05:20:36;2.53;;;1.60;;
12958;SDS011;6544;51.666;6.634;2023-01-08T05:23:03;5.28;;;2.00;;
12958;SDS011;6544;51.666;6.634;2023-01-08T05:25:29;3.60;;;1.90;;
12958;SDS011;6544;51.666;6.634;2023-01-08T05:27:58;6.20;;;1.92;;
12958;SDS011;6544;51.666;6.634;2023-01-08T05:30:24;3.50;;;2.05;;
12958;SDS011;6544;51.666;6.634;2023-01-08T05:32:51;6.13;;;2.30;;
12958;SDS011;6544;51.666;6.634;2023-01-08T05:35:18;3.28;;;2.00;;
12958;SDS011;6544;51.666;6.634;2023-01-08T05:37:45;3.53;;;2.13;;
12958;SDS011;6544;51.666;6.634;2023-01-08T05:40:12;4.55;;;2.42;;
12958;SDS011;6544;51.666;6.634;2023-01-08T05:42:39;7.18;;;2.95;;
12958;SDS011;6544;51.666;6.634;2023-01-08T05:45:08;4.95;;;2.83;;
12958;SDS011;6544;51.666;6.634;2023-01-08T05:47:35;8.52;;;3.28;;
12958;SDS011;6544;51.666;6.634;2023-01-08T05:50:02;7.88;;;2.80;;
12958;SDS011;6544;51.666;6.634;2023-01-08T05:52:29;5.10;;;2.72;;
12958;SDS011;6544;51.666;6.634;2023-01-08T05:54:56;5.63;;;2.65;;
12958;SDS011;6544;51.666;6.634;2023-01-08T05:57:24;3.78;;;2.38;;
12958;SDS011;6544;51.666;6.634;2023-01-08T05:59:51;2.72;;;2.30;;
12958;SDS011;6544;51.666;6.634;2023-01-08T06:02:19;3.70;;;2.35;;
12958;SDS011;6544;51.666;6.634;2023-01-08T06:04:46;3.92;;;2.30;;
12958;SDS011;6544;51.666;6.634;2023-01-08T06:07:13;2.90;;;2.15;;
12958;SDS011;6544;51.666;6.634;2023-01-08T06:09:40;2.97;;;2.58;;
12958;SDS011;6544;51.666;6.634;2023-01-08T06:12:10;3.50;;;2.00;;
12958;SDS011;6544;51.666;6.634;2023-01-08T06:14:36;3.95;;;1.85;;
12958;SDS011;6544;51.666;6.634;2023-01-08T06:17:03;2.70;;;1.90;;
12958;SDS011;6544;51.666;6.634;2023-01-08T06:19:31;3.45;;;1.75;;
12958;SDS011;6544;51.666;6.634;2023-01-08T06:21:58;3.78;;;1.60;;
12958;SDS011;6544;51.666;6.634;2023-01-08T06:24:25;2.17;;;1.60;;
12958;SDS011;6544;51.666;6.634;2023-01-08T06:26:52;2.33;;;1.60;;
12958;SDS011;6544;51.666;6.634;2023-01-08T06:29:19;3.50;;;1.60;;
12958;SDS011;6544;51.666;6.634;2023-01-08T06:31:46;4.00;;;1.70;;
12958;SDS011;6544;51.666;6.634;2023-01-08T06:34:13;3.88;;;1.52;;
12958;SDS011;6544;51.666;6.634;2023-01-08T06:36:41;3.03;;;1.70;;
12958;SDS011;6544;51.666;6.634;2023-01-08T06:39:08;3.88;;;1.75;;
12958;SDS011;6544;51.666;6.634;2023-01-08T06:41:35;2.85;;;1.60;;
12958;SDS011;6544;51.666;6.634;2023-01-08T06:44:02;2.38;;;1.30;;
12958;SDS011;6544;51.666;6.634;2023-01-08T06:46:29;2.65;;;1.60;;
12958;SDS011;6544;51.666;6.634;2023-01-08T06:48:56;4.13;;;1.67;;
12958;SDS011;6544;51.666;6.634;2023-01-08T06:51:22;4.03;;;1.52;;
12958;SDS011;6544;51.666;6.634;2023-01-08T06:53:51;4.80;;;1.55;;
12958;SDS011;6544;51.666;6.634;2023-01-08T06:56:17;3.75;;;1.50;;
12958;SDS011;6544;51.666;6.634;2023-01-08T06:58:44;5.28;;;1.45;;
12958;SDS011;6544;51.666;6.634;2023-01-08T07:01:12;6.78;;;1.55;;
12958;SDS011;6544;51.666;6.634;2023-01-08T07:03:40;4.97;;;1.50;;
12958;SDS011;6544;51.666;6.634;2023-01-08T07:06:08;3.95;;;1.52;;
12958;SDS011;6544;51.666;6.634;2023-01-08T07:08:40;3.42;;;1.50;;
12958;SDS011;6544;51.666;6.634;2023-01-08T07:11:08;2.08;;;1.30;;
12958;SDS011;6544;51.666;6.634;2023-01-08T07:13:35;4.07;;;1.70;;
12958;SDS011;6544;51.666;6.634;2023-01-08T07:16:05;2.70;;;1.33;;
12958;SDS011;6544;51.666;6.634;2023-01-08T07:18:32;2.55;;;1.30;;
12958;SDS011;6544;51.666;6.634;2023-01-08T07:21:00;4.30;;;1.40;;
12958;SDS011;6544;51.666;6.634;2023-01-08T07:23:28;3.10;;;1.40;;
12958;SDS011;6544;51.666;6.634;2023-01-08T07:25:55;2.08;;;1.10;;
12958;SDS011;6544;51.666;6.634;2023-01-08T07:28:27;2.53;;;1.17;;
12958;SDS011;6544;51.666;6.634;2023-01-08T07:30:54;4.35;;;1.20;;
12958;SDS011;6544;51.666;6.634;2023-01-08T07:33:21;2.63;;;1.33;;
12958;SDS011;6544;51.666;6.634;2023-01-08T07:35:50;1.98;;;1.10;;
12958;SDS011;6544;51.666;6.634;2023-01-08T07:38:18;3.45;;;1.30;;
12958;SDS011;6544;51.666;6.634;2023-01-08T07:40:45;3.75;;;1.25;;
12958;SDS011;6544;51.666;6.634;2023-01-08T07:43:12;4.78;;;1.40;;
12958;SDS011;6544;51.666;6.634;2023-01-08T07:45:41;2.50;;;1.15;;
12958;SDS011;6544;51.666;6.634;2023-01-08T07:48:08;2.58;;;1.20;;
12958;SDS011;6544;51.666;6.634;2023-01-08T07:50:39;5.18;;;1.20;;
12958;SDS011;6544;51.666;6.634;2023-01-08T07:53:06;3.65;;;1.33;;
12958;SDS011;6544;51.666;6.634;2023-01-08T07:55:34;6.22;;;1.70;;
12958;SDS011;6544;51.666;6.634;2023-01-08T07:58:06;4.07;;;1.63;;
12958;SDS011;6544;51.666;6.634;2023-01-08T08:00:34;3.47;;;1.35;;
12958;SDS011;6544;51.666;6.634;2023-01-08T08:03:02;3.22;;;1.40;;
12958;SDS011;6544;51.666;6.634;2023-01-08T08:05:30;4.57;;;1.60;;
12958;SDS011;6544;51.666;6.634;2023-01-08T08:07:58;3.38;;;1.30;;
12958;SDS011;6544;51.666;6.634;2023-01-08T08:10:25;3.20;;;1.30;;
12958;SDS011;6544;51.666;6.634;2023-01-08T08:12:52;5.70;;;1.67;;
12958;SDS011;6544;51.666;6.634;2023-01-08T08:15:18;3.45;;;1.60;;
12958;SDS011;6544;51.666;6.634;2023-01-08T08:17:46;8.25;;;1.95;;
12958;SDS011;6544;51.666;6.634;2023-01-08T08:20:14;5.22;;;1.73;;
12958;SDS011;6544;51.666;6.634;2023-01-08T08:22:41;5.53;;;1.88;;
12958;SDS011;6544;51.666;6.634;2023-01-08T08:25:09;5.00;;;1.70;;
12958;SDS011;6544;51.666;6.634;2023-01-08T08:27:36;3.95;;;1.73;;
12958;SDS011;6544;51.666;6.634;2023-01-08T08:30:03;3.97;;;1.60;;
12958;SDS011;6544;51.666;6.634;2023-01-08T08:32:30;4.65;;;1.90;;
12958;SDS011;6544;51.666;6.634;2023-01-08T08:34:57;4.90;;;1.73;;
12958;SDS011;6544;51.666;6.634;2023-01-08T08:37:26;5.90;;;2.40;;
12958;SDS011;6544;51.666;6.634;2023-01-08T08:39:53;5.28;;;2.10;;
12958;SDS011;6544;51.666;6.634;2023-01-08T08:42:20;7.57;;;2.03;;
12958;SDS011;6544;51.666;6.634;2023-01-08T08:44:47;3.03;;;1.80;;
12958;SDS011;6544;51.666;6.634;2023-01-08T08:47:13;5.38;;;1.75;;
12958;SDS011;6544;51.666;6.634;2023-01-08T08:49:40;5.90;;;2.35;;
12958;SDS011;6544;51.666;6.634;2023-01-08T08:52:07;6.63;;;2.30;;
12958;SDS011;6544;51.666;6.634;2023-01-08T08:54:35;7.30;;;2.25;;
12958;SDS011;6544;51.666;6.634;2023-01-08T08:57:05;7.03;;;2.30;;
12958;SDS011;6544;51.666;6.634;2023-01-08T08:59:32;4.32;;;2.15;;
12958;SDS011;6544;51.666;6.634;2023-01-08T09:01:59;7.72;;;2.40;;
12958;SDS011;6544;51.666;6.634;2023-01-08T09:04:28;7.65;;;2.00;;
12958;SDS011;6544;51.666;6.634;2023-01-08T09:06:56;7.93;;;2.30;;
12958;SDS011;6544;51.666;6.634;2023-01-08T09:09:23;4.13;;;2.15;;
12958;SDS011;6544;51.666;6.634;2023-01-08T09:11:51;6.32;;;2.58;;
12958;SDS011;6544;51.666;6.634;2023-01-08T09:14:18;4.93;;;2.17;;
12958;SDS011;6544;51.666;6.634;2023-01-08T09:16:45;7.72;;;2.28;;
12958;SDS011;6544;51.666;6.634;2023-01-08T09:19:12;6.45;;;2.28;;
12958;SDS011;6544;51.666;6.634;2023-01-08T09:21:39;6.95;;;2.03;;
12958;SDS011;6544;51.666;6.634;2023-01-08T09:24:06;8.02;;;2.10;;
12958;SDS011;6544;51.666;6.634;2023-01-08T09:26:36;7.75;;;2.25;;
12958;SDS011;6544;51.666;6.634;2023-01-08T09:29:04;5.10;;;1.98;;
12958;SDS011;6544;51.666;6.634;2023-01-08T09:31:32;4.32;;;1.90;;
12958;SDS011;6544;51.666;6.634;2023-01-08T09:33:59;6.15;;;2.15;;
12958;SDS011;6544;51.666;6.634;2023-01-08T09:36:26;6.43;;;2.17;;
12958;SDS011;6544;51.666;6.634;2023-01-08T09:38:53;8.27;;;2.08;;
12958;SDS011;6544;51.666;6.634;2023-01-08T09:41:20;8.02;;;2.05;;
12958;SDS011;6544;51.666;6.634;2023-01-08T09:43:51;7.15;;;2.30;;
12958;SDS011;6544;51.666;6.634;2023-01-08T09:46:23;7.82;;;2.38;;
12958;SDS011;6544;51.666;6.634;2023-01-08T09:48:52;11.10;;;2.40;;
12958;SDS011;6544;51.666;6.634;2023-01-08T09:51:21;6.85;;;2.50;;
12958;SDS011;6544;51.666;6.634;2023-01-08T09:53:56;6.63;;;2.05;;
12958;SDS011;6544;51.666;6.634;2023-01-08T09:56:23;8.50;;;2.35;;
12958;SDS011;6544;51.666;6.634;2023-01-08T09:58:52;7.20;;;2.20;;
12958;SDS011;6544;51.666;6.634;2023-01-08T10:01:25;10.77;;;2.10;;
12958;SDS011;6544;51.666;6.634;2023-01-08T10:03:55;5.97;;;2.53;;
12958;SDS011;6544;51.666;6.634;2023-01-08T10:06:24;9.32;;;2.42;;
12958;SDS011;6544;51.666;6.634;2023-01-08T10:08:51;10.40;;;2.80;;
12958;SDS011;6544;51.666;6.634;2023-01-08T10:11:18;7.55;;;2.00;;
12958;SDS011;6544;51.666;6.634;2023-01-08T10:13:48;6.78;;;2.72;;
12958;SDS011;6544;51.666;6.634;2023-01-08T10:16:18;6.60;;;2.47;;
12958;SDS011;6544;51.666;6.634;2023-01-08T10:18:52;5.00;;;2.33;;
12958;SDS011;6544;51.666;6.634;2023-01-08T10:21:19;9.65;;;2.67;;
12958;SDS011;6544;51.666;6.634;2023-01-08T10:23:50;7.20;;;2.70;;
12958;SDS011;6544;51.666;6.634;2023-01-08T10:26:24;8.10;;;2.30;;
12958;SDS011;6544;51.666;6.634;2023-01-08T10:29:04;7.78;;;2.30;;
12958;SDS011;6544;51.666;6.634;2023-01-08T10:31:37;8.48;;;2.60;;
12958;SDS011;6544;51.666;6.634;2023-01-08T10:34:09;5.28;;;2.42;;
12958;SDS011;6544;51.666;6.634;2023-01-08T10:36:50;11.02;;;2.80;;
12958;SDS011;6544;51.666;6.634;2023-01-08T10:39:19;7.35;;;2.40;;
12958;SDS011;6544;51.666;6.634;2023-01-08T10:41:49;5.25;;;2.10;;
12958;SDS011;6544;51.666;6.634;2023-01-08T10:44:18;7.05;;;2.30;;
12958;SDS011;6544;51.666;6.634;2023-01-08T10:46:51;7.07;;;2.80;;
12958;SDS011;6544;51.666;6.634;2023-01-08T10:49:23;4.38;;;2.08;;
12958;SDS011;6544;51.666;6.634;2023-01-08T10:51:55;5.82;;;2.03;;
12958;SDS011;6544;51.666;6.634;2023-01-08T10:54:25;7.82;;;2.10;;
12958;SDS011;6544;51.666;6.634;2023-01-08T10:56:56;9.00;;;2.20;;
12958;SDS011;6544;51.666;6.634;2023-01-08T10:59:24;6.93;;;2.30;;
12958;SDS011;6544;51.666;6.634;2023-01-08T11:01:53;6.30;;;2.30;;
12958;SDS011;6544;51.666;6.634;2023-01-08T11:04:22;6.50;;;2.05;;
12958;SDS011;6544;51.666;6.634;2023-01-08T11:06:52;5.60;;;2.08;;
12958;SDS011;6544;51.666;6.634;2023-01-08T11:09:25;6.35;;;2.40;;
12958;SDS011;6544;51.666;6.634;2023-01-08T11:11:55;5.00;;;2.00;;
12958;SDS011;6544;51.666;6.634;2023-01-08T11:14:22;6.38;;;2.17;;
12958;SDS011;6544;51.666;6.634;2023-01-08T11:16:54;8.10;;;2.10;;
12958;SDS011;6544;51.666;6.634;2023-01-08T11:19:22;4.50;;;2.38;;
12958;SDS011;6544;51.666;6.634;2023-01-08T11:21:58;7.53;;;2.15;;
12958;SDS011;6544;51.666;6.634;2023-01-08T11:24:27;7.82;;;2.00;;
12958;SDS011;6544;51.666;6.634;2023-01-08T11:26:58;6.80;;;2.10;;
12958;SDS011;6544;51.666;6.634;2023-01-08T11:29:32;8.07;;;2.30;;
12958;SDS011;6544;51.666;6.634;2023-01-08T11:32:23;6.13;;;2.30;;
12958;SDS011;6544;51.666;6.634;2023-01-08T11:34:54;5.50;;;2.25;;
12958;SDS011;6544;51.666;6.634;2023-01-08T11:37:26;8.00;;;2.40;;
12958;SDS011;6544;51.666;6.634;2023-01-08T11:39:55;5.28;;;1.98;;
12958;SDS011;6544;51.666;6.634;2023-01-08T11:45:23;4.10;;;2.15;;
12958;SDS011;6544;51.666;6.634;2023-01-08T11:48:03;6.35;;;1.88;;
12958;SDS011;6544;51.666;6.634;2023-01-08T11:50:43;5.90;;;2.17;;
12958;SDS011;6544;51.666;6.634;2023-01-08T11:53:20;6.32;;;2.20;;
12958;SDS011;6544;51.666;6.634;2023-01-08T11:55:54;7.25;;;2.50;;
12958;SDS011;6544;51.666;6.634;2023-01-08T11:58:37;6.82;;;2.15;;
12958;SDS011;6544;51.666;6.634;2023-01-08T12:01:24;4.03;;;2.00;;
12958;SDS011;6544;51.666;6.634;2023-01-08T12:04:03;6.82;;;2.53;;
12958;SDS011;6544;51.666;6.634;2023-01-08T12:06:50;5.88;;;2.10;;
12958;SDS011;6544;51.666;6.634;2023-01-08T12:09:25;7.40;;;2.60;;
12958;SDS011;6544;51.666;6.634;2023-01-08T12:12:05;11.05;;;2.50;;
12958;SDS011;6544;51.666;6.634;2023-01-08T12:14:40;7.93;;;2.40;;
12958;SDS011;6544;51.666;6.634;2023-01-08T12:17:20;6.53;;;2.70;;
12958;SDS011;6544;51.666;6.634;2023-01-08T12:20:05;6.82;;;2.65;;
12958;SDS011;6544;51.666;6.634;2023-01-08T12:22:41;10.55;;;4.25;;
12958;SDS011;6544;51.666;6.634;2023-01-08T12:28:21;9.60;;;3.47;;
12958;SDS011;6544;51.666;6.634;2023-01-08T12:31:15;7.85;;;2.80;;
12958;SDS011;6544;51.666;6.634;2023-01-08T12:33:55;7.35;;;3.50;;
12958;SDS011;6544;51.666;6.634;2023-01-08T12:36:32;5.68;;;2.90;;
12958;SDS011;6544;51.666;6.634;2023-01-08T12:39:08;11.25;;;3.13;;
12958;SDS011;6544;51.666;6.634;2023-01-08T12:41:52;4.60;;;2.45;;
12958;SDS011;6544;51.666;6.634;2023-01-08T12:44:51;6.82;;;2.97;;
12958;SDS011;6544;51.666;6.634;2023-01-08T12:47:24;5.78;;;2.50;;
12958;SDS011;6544;51.666;6.634;2023-01-08T12:50:02;7.47;;;2.47;;
12958;SDS011;6544;51.666;6.634;2023-01-08T12:56:44;6.50;;;2.20;;
12958;SDS011;6544;51.666;6.634;2023-01-08T12:59:47;7.00;;;2.17;;
12958;SDS011;6544;51.666;6.634;2023-01-08T13:02:24;7.65;;;2.00;;
12958;SDS011;6544;51.666;6.634;2023-01-08T13:05:09;5.15;;;2.60;;
12958;SDS011;6544;51.666;6.634;2023-01-08T13:07:40;4.60;;;2.47;;
12958;SDS011;6544;51.666;6.634;2023-01-08T13:10:20;5.30;;;2.33;;
12958;SDS011;6544;51.666;6.634;2023-01-08T13:13:00;4.15;;;1.90;;
12958;SDS011;6544;51.666;6.634;2023-01-08T13:15:29;5.47;;;2.15;;
12958;SDS011;6544;51.666;6.634;2023-01-08T13:17:59;4.68;;;1.90;;
12958;SDS011;6544;51.666;6.634;2023-01-08T13:20:32;4.95;;;2.53;;
12958;SDS011;6544;51.666;6.634;2023-01-08T13:22:59;5.88;;;2.50;;
12958;SDS011;6544;51.666;6.634;2023-01-08T13:25:33;5.65;;;1.88;;
12958;SDS011;6544;51.666;6.634;2023-01-08T13:28:04;6.80;;;2.05;;
12958;SDS011;6544;51.666;6.634;2023-01-08T13:30:51;6.95;;;2.10;;
12958;SDS011;6544;51.666;6.634;2023-01-08T13:33:35;4.95;;;1.80;;
12958;SDS011;6544;51.666;6.634;2023-01-08T13:36:15;4.78;;;1.67;;
12958;SDS011;6544;51.666;6.634;2023-01-08T13:41:33;2.65;;;1.40;;
12958;SDS011;6544;51.666;6.634;2023-01-08T13:44:04;3.50;;;1.60;;
12958;SDS011;6544;51.666;6.634;2023-01-08T13:46:39;3.92;;;1.80;;
12958;SDS011;6544;51.666;6.634;2023-01-08T13:49:06;3.75;;;1.50;;
12958;SDS011;6544;51.666;6.634;2023-01-08T13:51:39;3.72;;;1.67;;
12958;SDS011;6544;51.666;6.634;2023-01-08T13:54:16;4.85;;;1.90;;
12958;SDS011;6544;51.666;6.634;2023-01-08T13:56:47;3.70;;;1.52;;
12958;SDS011;6544;51.666;6.634;2023-01-08T13:59:28;4.22;;;1.88;;
12958;SDS011;6544;51.666;6.634;2023-01-08T14:02:01;3.15;;;1.60;;
12958;SDS011;6544;51.666;6.634;2023-01-08T14:04:29;4.22;;;1.55;;
12958;SDS011;6544;51.666;6.634;2023-01-08T14:07:04;3.45;;;1.60;;
12958;SDS011;6544;51.666;6.634;2023-01-08T14:09:37;3.97;;;1.70;;
12958;SDS011;6544;51.666;6.634;2023-01-08T14:12:07;3.88;;;1.88;;
12958;SDS011;6544;51.666;6.634;2023-01-08T14:14:40;3.35;;;1.45;;
12958;SDS011;6544;51.666;6.634;2023-01-08T14:17:13;4.60;;;1.92;;
12958;SDS011;6544;51.666;6.634;2023-01-08T14:19:41;3.13;;;1.23;;
12958;SDS011;6544;51.666;6.634;2023-01-08T14:22:12;3.88;;;1.50;;
12958;SDS011;6544;51.666;6.634;2023-01-08T14:24:43;3.40;;;1.67;;
12958;SDS011;6544;51.666;6.634;2023-01-08T14:27:19;3.58;;;1.40;;
12958;SDS011;6544;51.666;6.634;2023-01-08T14:29:48;2.58;;;1.40;;
12958;SDS011;6544;51.666;6.634;2023-01-08T14:32:15;4.47;;;1.70;;
12958;SDS011;6544;51.666;6.634;2023-01-08T14:34:43;6.20;;;1.58;;
12958;SDS011;6544;51.666;6.634;2023-01-08T14:37:12;4.32;;;1.60;;
12958;SDS011;6544;51.666;6.634;2023-01-08T14:39:39;4.32;;;1.63;;
12958;SDS011;6544;51.666;6.634;2023-01-08T14:42:06;3.63;;;1.85;;
12958;SDS011;6544;51.666;6.634;2023-01-08T14:44:57;4.68;;;1.60;;
12958;SDS011;6544;51.666;6.634;2023-01-08T14:47:28;4.75;;;2.13;;
12958;SDS011;6544;51.666;6.634;2023-01-08T14:49:59;4.43;;;1.60;;
12958;SDS011;6544;51.666;6.634;2023-01-08T14:52:27;3.60;;;1.50;;
12958;SDS011;6544;51.666;6.634;2023-01-08T14:54:54;5.40;;;1.45;;
12958;SDS011;6544;51.666;6.634;2023-01-08T14:57:24;5.63;;;1.50;;
12958;SDS011;6544;51.666;6.634;2023-01-08T14:59:52;2.85;;;1.42;;
12958;SDS011;6544;51.666;6.634;2023-01-08T15:02:24;2.15;;;1.30;;
12958;SDS011;6544;51.666;6.634;2023-01-08T15:05:11;2.10;;;1.30;;
12958;SDS011;6544;51.666;6.634;2023-01-08T15:07:41;3.28;;;1.48;;
12958;SDS011;6544;51.666;6.634;2023-01-08T15:13:02;3.38;;;1.25;;
12958;SDS011;6544;51.666;6.634;2023-01-08T15:15:31;4.15;;;1.70;;
12958;SDS011;6544;51.666;6.634;2023-01-08T15:18:04;4.15;;;2.20;;
12958;SDS011;6544;51.666;6.634;2023-01-08T15:20:32;5.53;;;2.50;;
12958;SDS011;6544;51.666;6.634;2023-01-08T15:23:01;4.15;;;2.10;;
12958;SDS011;6544;51.666;6.634;2023-01-08T15:25:28;4.75;;;2.47;;
12958;SDS011;6544;51.666;6.634;2023-01-08T15:27:56;4.40;;;1.90;;
12958;SDS011;6544;51.666;6.634;2023-01-08T15:30:27;3.78;;;1.90;;
12958;SDS011;6544;51.666;6.634;2023-01-08T15:33:07;5.47;;;2.10;;
12958;SDS011;6544;51.666;6.634;2023-01-08T15:35:43;3.63;;;1.42;;